CST3 weather

Montreal / St-Lazare Airport
Montréal, Quebec, Canada

Public forecast

Using degrees Celsius for public forecast. Weather courtesy of forecast.io.

Closest aviation weather report (METAR) to Montreal / St-Lazare Airport

Closest report is Montreal / Pierre Elliott Trudeau International Airport, 17.3 nm (32.0 km) ENE. Retrieved 2020/06/01 08:00 UTC (39 minutes ago):

CYUL 010800Z 00000KT 15SM SKC 04/03 A3015 RMK SLP212

Closest aviation forecast (TAF) to Montreal / St-Lazare Airport

Closest forecast is Montreal / Pierre Elliott Trudeau International Airport, 17.3 nm (32.0 km) ENE. Retrieved 2020/06/01 06:42 UTC (2 hours ago):

TAF TAF CYUL 010538Z 0106/0206 28008KT P6SM FEW240 FM011200 25010KT P6SM SCT040 BKN080 FM011500 25012KT P6SM BKN040 TEMPO 0116/0123 P6SM -SHRA FM020000 35008KT P6SM SCT060 BECMG 0201/0203 05005KT RMK NXT FCST BY 010900Z